Time;durP1;ratioP1;P1;durP2;ratioP2;P2;SDS_P1;SDS_P2;PMS_P1;PMS_P2;Temp;Humidity;BMP_temperature;BMP_pressure;BME280_temperature;BME280_humidity;BME280_pressure;Samples;Min_cycle;Max_cycle;Signal;HPM_P1;HPM_P2
2022/04/05 00:00:47;;;;;;;20.60;9.50;;;;;;;-145.18;100.00;46621.31;4971661;28;20057;-71
2022/04/05 00:03:12;;;;;;;19.60;9.47;;;;;;;-145.18;100.00;46621.31;4971173;28;20031;-72
2022/04/05 00:05:37;;;;;;;20.87;11.00;;;;;;;-145.18;100.00;46623.28;4971568;28;20142;-72
2022/04/05 00:08:03;;;;;;;21.03;10.27;;;;;;;-145.18;100.00;46617.41;4971498;28;20023;-72
2022/04/05 00:10:28;;;;;;;21.27;11.03;;;;;;;-145.18;100.00;46621.31;4971385;28;20027;-71
2022/04/05 00:12:54;;;;;;;20.73;10.30;;;;;;;-145.18;100.00;46623.28;4971025;28;20042;-72
2022/04/05 00:15:19;;;;;;;31.00;10.90;;;;;;;-145.18;100.00;46627.19;4971665;28;20027;-72
2022/04/05 00:17:45;;;;;;;29.33;12.37;;;;;;;-145.18;100.00;46621.31;4971271;28;20035;-72
2022/04/05 00:20:11;;;;;;;21.83;11.83;;;;;;;-145.18;100.00;46621.31;4971626;28;20034;-71
2022/04/05 00:22:36;;;;;;;24.87;12.07;;;;;;;-145.18;100.00;46617.41;4971149;28;20487;-72
2022/04/05 00:25:03;;;;;;;21.87;12.50;;;;;;;-145.18;100.00;46619.38;4974650;28;20038;-72
2022/04/05 00:27:28;;;;;;;19.40;10.20;;;;;;;-145.18;100.00;46625.22;4974764;28;20031;-71
2022/04/05 00:29:55;;;;;;;24.23;12.13;;;;;;;-145.18;100.00;46623.28;4975405;28;20281;-72
2022/04/05 00:32:20;;;;;;;25.93;12.83;;;;;;;-145.18;100.00;46617.41;4974853;28;20038;-71
2022/04/05 00:34:46;;;;;;;18.67;10.90;;;;;;;-145.18;100.00;46619.38;4975158;28;20378;-72
2022/04/05 00:37:11;;;;;;;23.80;11.67;;;;;;;-145.18;100.00;46623.28;4974837;28;20067;-71
2022/04/05 00:39:37;;;;;;;22.07;11.27;;;;;;;-145.18;100.00;46621.31;4975213;28;20110;-71
2022/04/05 00:42:02;;;;;;;24.10;11.57;;;;;;;-145.18;100.00;46619.38;4974752;28;20049;-71
2022/04/05 00:44:28;;;;;;;23.57;12.13;;;;;;;-145.18;100.00;46621.31;4974748;28;20042;-72
2022/04/05 00:46:54;;;;;;;23.77;13.67;;;;;;;-145.18;100.00;46621.31;4974353;28;20034;-72
2022/04/05 00:49:33;;;;;;;28.53;12.50;;;;;;;-145.18;100.00;46621.31;4974853;28;20035;-72
2022/04/05 00:51:59;;;;;;;21.93;10.63;;;;;;;-145.18;100.00;46623.28;4974423;28;20284;-72
2022/04/05 00:54:26;;;;;;;22.07;12.87;;;;;;;-145.18;100.00;46625.22;4974854;28;20305;-72
2022/04/05 00:56:56;;;;;;;27.80;12.27;;;;;;;-145.18;100.00;46621.31;4974298;28;20039;-72
2022/04/05 00:59:25;;;;;;;22.13;11.27;;;;;;;-145.18;100.00;46625.22;4974516;28;20253;-72
2022/04/05 01:01:53;;;;;;;24.50;11.83;;;;;;;-145.18;100.00;46621.31;4974446;28;20716;-72
2022/04/05 01:04:21;;;;;;;24.73;11.67;;;;;;;-145.18;100.00;46625.22;4974706;28;20749;-72
2022/04/05 01:06:48;;;;;;;30.13;13.83;;;;;;;-145.18;100.00;46625.22;4974079;28;20947;-73
2022/04/05 01:09:13;;;;;;;30.07;12.43;;;;;;;-145.18;100.00;46621.31;4974750;28;20276;-73
2022/04/05 01:11:39;;;;;;;23.93;12.63;;;;;;;-145.18;100.00;46625.22;4973995;28;20327;-72
2022/04/05 01:14:06;;;;;;;26.90;13.30;;;;;;;-145.18;100.00;46629.13;4974600;28;20039;-73
2022/04/05 01:16:31;;;;;;;27.53;14.53;;;;;;;-145.18;100.00;46621.31;4973966;28;20079;-72
2022/04/05 01:18:57;;;;;;;24.80;13.07;;;;;;;-145.18;100.00;46623.28;4974563;28;20758;-72
2022/04/05 01:21:23;;;;;;;25.53;12.40;;;;;;;-145.18;100.00;46623.28;4973690;28;20023;-72
2022/04/05 01:24:14;;;;;;;26.43;14.00;;;;;;;-145.18;100.00;46621.31;4974371;28;20387;-72
2022/04/05 01:26:41;;;;;;;32.73;15.87;;;;;;;-145.18;98.79;46619.38;4973645;28;20042;-72
2022/04/05 01:29:06;;;;;;;28.60;12.73;;;;;;;-145.18;99.01;46623.28;4974497;28;20269;-71
2022/04/05 01:31:37;;;;;;;30.33;14.90;;;;;;;-145.18;98.62;46621.31;4973485;28;20607;-72
2022/04/05 01:34:02;;;;;;;29.77;13.90;;;;;;;-145.18;98.75;46625.22;4974171;28;20065;-72
2022/04/05 01:36:28;;;;;;;29.83;14.80;;;;;;;-145.18;98.30;46617.41;4972530;28;20312;-72
2022/04/05 01:38:53;;;;;;;32.83;14.40;;;;;;;-145.18;98.30;46623.28;4974143;28;20039;-72
2022/04/05 01:41:18;;;;;;;21.13;12.20;;;;;;;-145.18;96.91;46617.41;4973499;28;20041;-72
2022/04/05 01:43:44;;;;;;;25.63;13.73;;;;;;;-145.18;96.75;46623.28;4973934;28;20038;-72
2022/04/05 01:46:09;;;;;;;25.70;13.60;;;;;;;-145.18;96.39;46625.22;4974074;28;20102;-73
2022/04/05 01:48:34;;;;;;;28.33;13.93;;;;;;;-145.18;96.04;46621.31;4973282;28;20038;-72
2022/04/05 01:51:00;;;;;;;30.67;14.03;;;;;;;-145.18;95.37;46623.28;4973639;28;20093;-72
2022/04/05 01:53:25;;;;;;;30.43;15.30;;;;;;;-145.18;95.09;46625.22;4955987;28;20183;-72
2022/04/05 01:55:50;;;;;;;29.23;15.93;;;;;;;-145.18;94.81;46625.22;4973619;28;20038;-71
2022/04/05 01:58:16;;;;;;;29.90;15.80;;;;;;;-145.18;94.10;46621.31;4973223;28;20027;-72
2022/04/05 02:03:17;;;;;;;38.53;15.55;;;;;;;-145.18;91.02;46623.28;5078440;23;20124;-70
2022/04/05 02:05:44;;;;;;;36.70;16.23;;;;;;;-145.18;90.06;46621.31;5020140;28;20689;-70
2022/04/05 02:08:09;;;;;;;41.23;17.73;;;;;;;-145.18;87.30;46617.41;5031978;28;20053;-70
2022/04/05 02:10:34;;;;;;;41.20;18.80;;;;;;;-145.18;85.71;46619.38;5032192;28;20922;-69
2022/04/05 02:13:00;;;;;;;39.70;18.57;;;;;;;-145.18;85.73;46615.47;5013826;28;20037;-69
2022/04/05 02:15:26;;;;;;;41.23;15.40;;;;;;;-145.18;85.84;46621.31;5032203;28;20033;-69
2022/04/05 02:17:51;;;;;;;30.90;16.67;;;;;;;-145.18;85.67;46621.31;5031493;28;20403;-69
2022/04/05 02:20:17;;;;;;;43.80;19.50;;;;;;;-145.18;85.57;46619.38;5032432;28;20041;-69
2022/04/05 02:22:43;;;;;;;31.10;17.30;;;;;;;-145.18;82.25;46621.31;5031679;28;20084;-69
2022/04/05 02:25:09;;;;;;;30.27;17.07;;;;;;;-145.18;82.00;46617.41;5031828;28;20275;-69
2022/04/05 02:27:34;;;;;;;37.70;18.93;;;;;;;-145.18;81.67;46625.22;5013825;28;20033;-70
2022/04/05 02:30:00;;;;;;;32.17;18.00;;;;;;;-145.18;80.51;46617.41;5031724;28;20044;-69
2022/04/05 02:32:25;;;;;;;32.33;18.43;;;;;;;-145.18;78.79;46621.31;5031605;28;20216;-70
2022/04/05 02:34:51;;;;;;;27.80;17.30;;;;;;;-145.18;78.51;46621.31;5031900;28;20047;-70
2022/04/05 02:37:16;;;;;;;31.77;16.67;;;;;;;-145.18;78.31;46619.38;5030984;28;20037;-70
2022/04/05 02:39:41;;;;;;;37.90;17.53;;;;;;;-145.18;78.21;46619.38;5031986;28;20026;-70
2022/04/05 02:42:07;;;;;;;30.30;16.27;;;;;;;-145.18;77.89;46623.28;5031043;28;20034;-70
2022/04/05 02:44:34;;;;;;;28.30;14.50;;;;;;;-145.18;77.71;46619.38;5031964;28;20033;-69
2022/04/05 02:47:00;;;;;;;28.37;15.53;;;;;;;-145.18;77.61;46625.22;5030719;28;20482;-70
2022/04/05 02:49:25;;;;;;;28.50;16.87;;;;;;;-145.18;77.55;46623.28;5031599;28;20282;-70
2022/04/05 02:51:50;;;;;;;29.00;16.03;;;;;;;-145.18;77.49;46623.28;5030653;28;20125;-70
2022/04/05 02:54:16;;;;;;;24.63;16.63;;;;;;;-145.18;77.51;46619.38;5031493;28;20045;-70
2022/04/05 02:56:41;;;;;;;27.30;17.43;;;;;;;-145.18;77.40;46617.41;5031283;28;20123;-70
2022/04/05 02:59:07;;;;;;;33.83;17.53;;;;;;;-145.18;77.28;46621.31;5030978;28;20026;-70
2022/04/05 03:01:32;;;;;;;32.80;18.93;;;;;;;-145.18;77.20;46619.38;5031355;28;20039;-69
2022/04/05 03:03:57;;;;;;;42.27;23.43;;;;;;;-145.18;77.16;46617.41;5030674;28;20490;-69
2022/04/05 03:06:23;;;;;;;44.60;24.20;;;;;;;-145.18;77.14;46615.47;5031455;28;20468;-70
2022/04/05 03:08:48;;;;;;;42.30;25.87;;;;;;;-145.18;77.09;46619.38;5030699;28;20084;-70
2022/04/05 03:11:14;;;;;;;42.63;23.30;;;;;;;-145.18;77.04;46617.41;5013782;28;20025;-70
2022/04/05 03:13:39;;;;;;;43.40;24.27;;;;;;;-145.18;77.01;46619.38;5030869;28;20051;-69
2022/04/05 03:16:05;;;;;;;45.47;22.70;;;;;;;-145.18;76.96;46621.31;5031255;28;20220;-69
2022/04/05 03:18:30;;;;;;;40.90;23.77;;;;;;;-145.18;76.98;46621.31;5030784;28;20035;-69
2022/04/05 03:20:56;;;;;;;49.03;22.43;;;;;;;-145.18;76.77;46617.41;5031068;28;20030;-70
2022/04/05 03:23:21;;;;;;;46.47;21.07;;;;;;;-145.18;76.75;46623.28;5030745;28;20045;-70
2022/04/05 03:25:50;;;;;;;47.13;21.00;;;;;;;-145.18;76.75;46617.41;5031148;28;20030;-70
2022/04/05 03:28:16;;;;;;;40.53;20.10;;;;;;;-145.18;76.77;46619.38;5030773;28;20056;-70
2022/04/05 03:30:42;;;;;;;45.40;19.70;;;;;;;-145.18;76.80;46617.41;5031090;28;20675;-70
2022/04/05 03:33:08;;;;;;;36.97;18.57;;;;;;;-145.18;76.85;46623.28;5030455;28;20064;-70
2022/04/05 03:35:33;;;;;;;37.40;19.93;;;;;;;-145.18;76.75;46617.41;5013271;28;20341;-70
2022/04/05 03:37:59;;;;;;;40.07;20.13;;;;;;;-145.18;76.69;46619.38;5030270;28;20033;-70
2022/04/05 03:40:24;;;;;;;37.43;19.67;;;;;;;-145.18;76.51;46619.38;5030752;28;20371;-70
2022/04/05 03:42:50;;;;;;;40.03;17.07;;;;;;;-145.18;76.35;46619.38;5012874;28;20095;-70
2022/04/05 03:45:15;;;;;;;35.33;18.13;;;;;;;-145.18;76.27;46619.38;5031048;28;20038;-70
2022/04/05 03:47:41;;;;;;;35.33;19.20;;;;;;;-145.18;76.18;46619.38;5030450;28;20037;-70
2022/04/05 03:50:06;;;;;;;38.97;17.33;;;;;;;-145.18;76.09;46617.41;5012703;28;20037;-70
2022/04/05 03:52:32;;;;;;;34.10;16.40;;;;;;;-145.18;76.05;46621.31;5012668;28;20108;-70
2022/04/05 03:54:57;;;;;;;36.40;18.77;;;;;;;-145.18;76.01;46619.38;5012932;28;20041;-70
2022/04/05 03:57:22;;;;;;;36.90;15.03;;;;;;;-145.18;76.00;46617.41;5030081;28;20117;-71
2022/04/05 03:59:48;;;;;;;45.07;17.23;;;;;;;-145.18;75.99;46619.38;5029978;28;20041;-70
2022/04/05 04:10:51;;;;;;;40.47;17.23;;;;;;;-145.18;75.64;46617.41;5005314;28;20309;-71
2022/04/05 04:14:46;;;;;;;37.50;19.77;;;;;;;-145.18;75.70;46619.38;5017050;28;20026;-70
2022/04/05 04:18:42;;;;;;;36.43;16.20;;;;;;;-145.18;75.73;46615.47;5020430;28;20348;-70
2022/04/05 04:22:37;;;;;;;44.97;21.30;;;;;;;-145.18;75.75;46617.41;5012706;28;20755;-71
2022/04/05 04:26:35;;;;;;;39.37;19.30;;;;;;;-145.18;75.81;46656.50;5008885;28;20358;-71
2022/04/05 04:30:30;;;;;;;38.70;19.03;;;;;;;-145.18;75.87;46617.41;5010307;28;20358;-71
2022/04/05 04:34:23;;;;;;;36.80;17.83;;;;;;;-145.18;75.89;46617.41;5010197;28;20354;-71
2022/04/05 04:38:16;;;;;;;31.87;15.97;;;;;;;-145.18;75.92;46617.41;4990337;28;20267;-71
2022/04/05 04:42:08;;;;;;;36.63;15.70;;;;;;;-145.18;75.86;46615.47;4990824;28;20336;-71
2022/04/05 04:46:00;;;;;;;36.37;17.70;;;;;;;-145.18;75.83;46654.53;4990391;28;20815;-71
2022/04/05 04:49:52;;;;;;;37.47;15.33;;;;;;;-145.18;75.82;46617.41;4989978;28;20283;-71
2022/04/05 04:53:45;;;;;;;40.03;17.20;;;;;;;-145.18;75.79;46619.38;5008567;28;20263;-71
2022/04/05 04:57:37;;;;;;;34.57;15.67;;;;;;;-145.18;75.72;46615.47;5012115;28;20272;-71
2022/04/05 05:01:31;;;;;;;36.30;17.23;;;;;;;-145.18;75.67;46654.53;5010399;28;20263;-71
2022/04/05 11:06:04;;;;;;;15.67;5.60;;;;;;;-145.18;100.00;46625.22;5007424;28;20632;-72
2022/04/05 11:09:48;;;;;;;8.83;5.20;;;;;;;-145.18;100.00;46625.22;4991203;28;20038;-72
2022/04/05 11:13:31;;;;;;;10.63;4.87;;;;;;;-145.18;100.00;46631.09;4991547;28;20299;-72
2022/04/05 11:17:12;;;;;;;9.17;4.37;;;;;;;-145.18;100.00;46625.22;4991707;28;20038;-72
2022/04/05 11:20:52;;;;;;;12.57;6.33;;;;;;;-145.18;100.00;46631.09;4991531;28;20034;-72
2022/04/05 11:24:33;;;;;;;11.10;5.23;;;;;;;-145.18;100.00;46636.94;4991542;28;20135;-72
2022/04/05 11:28:19;;;;;;;10.77;5.60;;;;;;;-145.18;100.00;46633.06;4991517;28;20405;-72
2022/04/05 11:35:36;;;;;;;11.13;5.93;;;;;;;-145.18;100.00;46631.09;4990588;28;20466;-72
2022/04/05 11:39:25;;;;;;;8.53;5.60;;;;;;;-145.18;100.00;46633.06;4991238;28;20801;-72
2022/04/05 11:43:06;;;;;;;13.23;6.13;;;;;;;-145.18;100.00;46635.00;4991234;28;20046;-72
2022/04/05 11:50:26;;;;;;;9.40;5.53;;;;;;;-145.18;100.00;46640.88;4990208;28;20411;-72
2022/04/05 11:54:12;;;;;;;10.40;5.60;;;;;;;-145.18;100.00;46642.81;4968929;28;20053;-72
2022/04/05 11:57:53;;;;;;;8.17;4.90;;;;;;;-145.18;100.00;46642.81;4969080;28;20097;-72
2022/04/05 12:05:09;;;;;;;7.13;5.00;;;;;;;-145.18;100.00;46650.63;4968267;28;20127;-72
